createdAt,value
2022-10-11T00:01:00.660Z,12.43
2022-10-11T00:03:28.867Z,12.03
2022-10-11T00:05:57.260Z,11.27
2022-10-11T00:08:28.356Z,10.52
2022-10-11T00:11:00.562Z,10.98
2022-10-11T00:13:30.652Z,11.20
2022-10-11T00:15:58.910Z,12.33
2022-10-11T00:18:27.103Z,14.68
2022-10-11T00:21:02.991Z,15.25
2022-10-11T00:23:31.042Z,12.60
2022-10-11T00:26:00.115Z,13.25
2022-10-11T00:28:30.959Z,12.97
2022-10-11T00:30:59.253Z,11.90
2022-10-11T00:33:27.221Z,15.85
2022-10-11T00:35:57.335Z,12.55
2022-10-11T00:38:28.255Z,11.77
2022-10-11T00:40:56.979Z,12.87
2022-10-11T00:43:27.611Z,15.35
2022-10-11T00:46:25.716Z,13.15
2022-10-11T00:48:58.752Z,14.50
2022-10-11T00:51:36.272Z,14.63
2022-10-11T00:54:05.639Z,12.23
2022-10-11T00:56:37.090Z,12.13
2022-10-11T00:59:10.565Z,15.15
2022-10-11T01:01:40.414Z,12.63
2022-10-11T01:04:08.343Z,13.95
2022-10-11T01:06:36.459Z,16.80
2022-10-11T01:09:04.920Z,19.45
2022-10-11T01:11:34.677Z,16.30
2022-10-11T01:14:25.015Z,14.93
2022-10-11T01:17:01.743Z,13.48
2022-10-11T01:19:49.981Z,10.37
2022-10-11T01:22:36.919Z,14.95
2022-10-11T01:25:27.238Z,11.50
2022-10-11T01:28:17.677Z,13.18
2022-10-11T01:30:48.495Z,12.15
2022-10-11T01:33:32.834Z,11.43
2022-10-11T01:36:08.901Z,11.20
2022-10-11T01:38:43.988Z,14.73
2022-10-11T01:41:16.033Z,13.73
2022-10-11T01:43:45.870Z,11.45
2022-10-11T01:46:16.191Z,11.77
2022-10-11T01:48:52.982Z,10.23
2022-10-11T01:51:22.829Z,11.07
2022-10-11T01:54:10.477Z,10.20
2022-10-11T01:56:53.639Z,13.30
2022-10-11T01:59:35.495Z,10.87
2022-10-11T02:02:16.552Z,10.05
2022-10-11T02:04:50.649Z,11.88
2022-10-11T02:07:23.220Z,12.38
2022-10-11T02:09:58.476Z,12.20
2022-10-11T02:12:32.202Z,12.33
2022-10-11T02:15:03.666Z,12.18
2022-10-11T02:17:37.849Z,12.20
2022-10-11T02:20:21.518Z,10.98
2022-10-11T02:22:53.159Z,12.63
2022-10-11T02:25:24.609Z,16.00
2022-10-11T02:27:57.475Z,20.08
2022-10-11T02:30:25.503Z,20.10
2022-10-11T02:32:55.801Z,18.25
2022-10-11T02:35:25.397Z,18.13
2022-10-11T02:37:56.037Z,18.00
2022-10-11T02:40:28.975Z,14.20
2022-10-11T02:43:01.492Z,14.13
2022-10-11T02:45:35.597Z,15.90
2022-10-11T02:48:06.015Z,13.32
2022-10-11T02:50:34.327Z,14.20
2022-10-11T02:53:04.723Z,13.10
2022-10-11T02:55:32.798Z,13.50
2022-10-11T02:58:01.029Z,11.85
2022-10-11T03:00:31.557Z,13.20
2022-10-11T03:03:00.279Z,10.37
2022-10-11T03:05:29.848Z,11.88
2022-10-11T03:07:57.866Z,13.20
2022-10-11T03:10:25.844Z,11.18
2022-10-11T03:12:55.531Z,13.20
2022-10-11T03:15:23.112Z,13.93
2022-10-11T03:17:51.579Z,9.90
2022-10-11T03:20:19.663Z,11.30
2022-10-11T03:22:49.506Z,13.80
2022-10-11T03:25:17.925Z,14.32
2022-10-11T03:27:45.966Z,10.77
2022-10-11T03:30:18.347Z,14.70
2022-10-11T03:32:46.849Z,10.43
2022-10-11T03:35:16.352Z,11.48
2022-10-11T03:37:44.200Z,13.32
2022-10-11T03:40:19.530Z,12.03
2022-10-11T03:42:47.400Z,13.63
2022-10-11T03:45:15.341Z,10.50
2022-10-11T03:47:43.320Z,13.18
2022-10-11T03:50:11.974Z,11.02
2022-10-11T03:52:40.078Z,11.33
2022-10-11T03:55:10.609Z,9.45
2022-10-11T03:57:39.913Z,10.27
2022-10-11T04:00:09.586Z,8.75
2022-10-11T04:02:39.327Z,11.38
2022-10-11T04:05:07.940Z,9.33
2022-10-11T04:07:36.048Z,10.77
2022-10-11T04:10:03.841Z,10.90
2022-10-11T04:12:31.702Z,10.38
2022-10-11T04:15:01.225Z,12.43
2022-10-11T04:17:30.561Z,10.43
2022-10-11T04:19:59.019Z,10.05
2022-10-11T04:22:27.738Z,11.23
2022-10-11T04:24:56.072Z,11.27
2022-10-11T04:27:24.058Z,11.23
2022-10-11T04:29:52.758Z,11.03
2022-10-11T04:32:22.102Z,13.55
2022-10-11T04:34:50.906Z,15.70
2022-10-11T04:37:19.005Z,11.68
2022-10-11T04:39:46.974Z,10.90
2022-10-11T04:42:14.814Z,11.80
2022-10-11T04:44:42.543Z,10.30
2022-10-11T04:47:11.054Z,13.18
2022-10-11T04:49:40.693Z,11.90
2022-10-11T04:52:08.541Z,12.88
2022-10-11T04:54:37.105Z,13.37
2022-10-11T04:57:04.883Z,12.57
2022-10-11T04:59:33.009Z,11.63
2022-10-11T05:02:01.212Z,13.05
2022-10-11T05:04:29.165Z,12.00
2022-10-11T05:06:58.525Z,13.40
2022-10-11T05:09:26.340Z,12.38
2022-10-11T05:11:54.558Z,13.27
2022-10-11T05:14:22.603Z,21.13
2022-10-11T05:16:50.503Z,18.98
2022-10-11T05:19:18.562Z,16.50
2022-10-11T05:21:46.361Z,20.48
2022-10-11T05:24:15.361Z,22.67
2022-10-11T05:26:44.948Z,23.75
2022-10-11T05:29:12.849Z,21.17
2022-10-11T05:31:40.916Z,19.13
2022-10-11T05:34:09.329Z,19.98
2022-10-11T05:36:37.703Z,21.42
2022-10-11T05:39:06.420Z,24.33
2022-10-11T05:41:35.745Z,26.10
2022-10-11T05:44:05.148Z,26.13
2022-10-11T05:46:32.978Z,26.25
2022-10-11T05:49:00.552Z,22.98
2022-10-11T05:51:28.542Z,18.45
2022-10-11T05:53:56.177Z,22.33
2022-10-11T05:56:26.403Z,29.67
2022-10-11T05:59:01.377Z,30.77
2022-10-11T06:01:30.631Z,20.48
2022-10-11T06:03:58.933Z,18.60
2022-10-11T06:06:27.520Z,17.80
2022-10-11T06:08:55.661Z,15.73
2022-10-11T06:11:26.074Z,18.45
2022-10-11T06:13:56.389Z,20.90
2022-10-11T06:16:24.389Z,20.10
2022-10-11T06:18:54.312Z,19.52
2022-10-11T06:21:22.533Z,18.97
2022-10-11T06:23:52.953Z,18.90
2022-10-11T06:26:22.996Z,18.40
2022-10-11T06:28:51.124Z,19.02
2022-10-11T06:31:20.540Z,21.73
2022-10-11T06:33:48.704Z,22.03
2022-10-11T06:36:17.481Z,22.45
2022-10-11T06:38:45.813Z,21.42
2022-10-11T06:41:17.576Z,22.40
2022-10-11T06:43:46.101Z,20.27
2022-10-11T06:46:14.076Z,19.10
2022-10-11T06:48:45.658Z,15.70
2022-10-11T06:51:14.924Z,17.20
2022-10-11T06:53:43.565Z,14.88
2022-10-11T06:56:13.614Z,16.20
2022-10-11T06:58:41.580Z,13.63
2022-10-11T07:01:12.629Z,17.42
2022-10-11T07:03:40.795Z,18.20
2022-10-11T07:06:12.858Z,17.27
2022-10-11T07:08:41.038Z,17.27
2022-10-11T07:11:11.346Z,17.60
2022-10-11T07:13:40.163Z,16.50
2022-10-11T07:16:10.612Z,19.05
2022-10-11T07:18:39.695Z,14.43
2022-10-11T07:21:12.034Z,16.15
2022-10-11T07:23:40.240Z,16.57
2022-10-11T07:26:09.660Z,17.13
2022-10-11T07:28:39.097Z,14.63
2022-10-11T07:31:07.741Z,12.13
2022-10-11T07:33:35.772Z,18.50
2022-10-11T07:36:07.297Z,12.17
2022-10-11T07:38:37.203Z,13.85
2022-10-11T07:41:06.756Z,16.13
2022-10-11T07:43:34.832Z,13.10
2022-10-11T07:46:04.883Z,16.23
2022-10-11T07:48:34.376Z,12.73
2022-10-11T07:51:08.366Z,14.55
2022-10-11T07:53:42.651Z,14.65
2022-10-11T07:56:12.448Z,17.27
2022-10-11T07:58:41.402Z,16.38
2022-10-11T08:01:10.587Z,12.07
2022-10-11T08:03:38.916Z,13.85
2022-10-11T08:06:09.829Z,11.57
2022-10-11T08:08:40.296Z,15.50
2022-10-11T08:11:08.792Z,17.80
2022-10-11T08:13:36.385Z,18.73
2022-10-11T08:16:11.226Z,13.18
2022-10-11T08:18:39.009Z,13.82
2022-10-11T08:21:08.559Z,13.57
2022-10-11T08:23:36.168Z,11.52
2022-10-11T08:26:06.063Z,13.00
2022-10-11T08:28:33.914Z,17.05
2022-10-11T08:31:02.573Z,13.90
2022-10-11T08:33:31.193Z,14.45
2022-10-11T08:35:59.181Z,10.82
2022-10-11T08:38:27.107Z,13.33
2022-10-11T08:40:57.603Z,11.70
2022-10-11T08:43:43.209Z,11.45
2022-10-11T08:46:13.412Z,14.05
2022-10-11T08:48:44.580Z,12.52
2022-10-11T08:51:19.790Z,10.40
2022-10-11T08:53:52.939Z,10.82
2022-10-11T08:56:22.505Z,11.27
2022-10-11T08:58:57.599Z,14.40
2022-10-11T09:01:28.665Z,14.63
2022-10-11T09:04:00.462Z,13.60
2022-10-11T09:06:40.131Z,14.88
2022-10-11T09:09:51.338Z,13.52
2022-10-11T09:12:31.167Z,12.13
2022-10-11T09:15:27.870Z,13.32
2022-10-11T09:18:15.576Z,12.53
2022-10-11T09:21:02.329Z,12.55
2022-10-11T09:23:45.675Z,12.60
2022-10-11T09:26:16.896Z,12.63
2022-10-11T09:28:55.154Z,12.30
2022-10-11T09:31:28.857Z,11.10
2022-10-11T09:33:58.753Z,13.05
2022-10-11T09:36:33.158Z,13.45
2022-10-11T09:39:07.288Z,14.55
2022-10-11T09:41:40.680Z,11.68
2022-10-11T09:44:09.279Z,16.70
2022-10-11T09:46:42.700Z,10.15
2022-10-11T09:49:15.595Z,14.63
2022-10-11T09:51:49.289Z,13.32
2022-10-11T09:54:20.849Z,12.95
2022-10-11T09:56:48.787Z,13.37
2022-10-11T09:59:28.014Z,14.57
2022-10-11T10:02:20.323Z,11.52
2022-10-11T10:05:17.972Z,11.90
2022-10-11T10:08:08.951Z,10.77
2022-10-11T10:10:40.397Z,11.83
2022-10-11T10:13:21.820Z,13.10
2022-10-11T10:15:52.103Z,11.55
2022-10-11T10:18:24.898Z,14.43
2022-10-11T10:20:55.267Z,15.50
2022-10-11T10:23:25.657Z,11.17
2022-10-11T10:25:55.184Z,13.25
2022-10-11T10:28:25.691Z,10.50
2022-10-11T10:30:55.425Z,13.65
2022-10-11T10:33:27.630Z,9.90
2022-10-11T10:36:00.963Z,12.23
2022-10-11T10:38:34.362Z,11.27
2022-10-11T10:41:04.710Z,12.45
2022-10-11T10:43:35.864Z,9.98
2022-10-11T10:46:26.706Z,11.10
2022-10-11T10:49:28.713Z,8.60
2022-10-11T10:52:05.404Z,11.75
2022-10-11T10:54:45.313Z,11.50
2022-10-11T10:57:20.181Z,10.20
2022-10-11T11:00:00.675Z,10.10
2022-10-11T11:02:40.802Z,11.77
2022-10-11T11:05:24.333Z,11.95
2022-10-11T11:07:57.815Z,10.20
2022-10-11T11:10:31.899Z,12.10
2022-10-11T11:13:18.277Z,13.68
2022-10-11T11:15:54.408Z,10.90
2022-10-11T11:18:30.669Z,11.65
2022-10-11T11:21:26.988Z,10.32
2022-10-11T11:24:00.153Z,10.43
2022-10-11T11:26:38.683Z,10.45
2022-10-11T11:29:19.693Z,10.60
2022-10-11T11:32:02.302Z,10.55
2022-10-11T11:34:37.207Z,11.55
2022-10-11T11:37:11.061Z,9.57
2022-10-11T11:39:44.008Z,12.90
2022-10-11T11:42:16.832Z,11.73
2022-10-11T11:44:48.267Z,10.40
2022-10-11T11:47:21.779Z,9.27
2022-10-11T11:49:54.564Z,10.23
2022-10-11T11:52:29.547Z,11.65
2022-10-11T11:55:07.480Z,11.33
2022-10-11T11:57:50.414Z,8.07
2022-10-11T12:00:21.709Z,9.55
2022-10-11T12:02:53.567Z,9.02
2022-10-11T12:05:24.117Z,17.67
2022-10-11T12:08:00.227Z,10.63
2022-10-11T12:10:33.140Z,8.98
2022-10-11T12:13:19.866Z,13.20
2022-10-11T12:16:09.737Z,9.77
2022-10-11T12:18:49.906Z,8.57
2022-10-11T12:21:26.193Z,9.10
2022-10-11T12:23:57.318Z,8.20
2022-10-11T12:26:40.586Z,9.77
2022-10-11T12:29:43.200Z,15.52
2022-10-11T12:32:52.752Z,11.60
2022-10-11T12:36:00.339Z,9.87
2022-10-11T12:38:34.025Z,11.00
2022-10-11T12:41:40.038Z,10.90
2022-10-11T12:44:10.423Z,10.20
2022-10-11T12:46:45.447Z,13.77
2022-10-11T12:49:38.715Z,11.53
2022-10-11T12:52:25.005Z,12.38
2022-10-11T12:55:26.835Z,11.82
2022-10-11T12:58:27.211Z,9.57
2022-10-11T13:01:19.106Z,9.82
2022-10-11T13:03:53.212Z,11.03
2022-10-11T13:06:25.445Z,9.07
2022-10-11T13:08:58.220Z,12.25
2022-10-11T13:11:32.253Z,12.90
2022-10-11T13:14:07.054Z,11.90
2022-10-11T13:16:48.973Z,14.53
2022-10-11T13:19:18.251Z,14.00
2022-10-11T13:21:54.358Z,10.77
2022-10-11T13:24:28.907Z,10.15
2022-10-11T13:26:58.050Z,8.82
2022-10-11T13:29:33.914Z,10.50
2022-10-11T13:32:04.707Z,9.27
2022-10-11T13:34:37.560Z,9.82
2022-10-11T13:37:06.178Z,10.30
2022-10-11T13:39:39.522Z,10.65
2022-10-11T13:42:11.453Z,9.17
2022-10-11T13:44:43.550Z,8.45
2022-10-11T13:47:15.499Z,8.10
2022-10-11T13:49:47.730Z,11.40
2022-10-11T13:52:24.353Z,11.65
2022-10-11T13:54:58.213Z,10.67
2022-10-11T13:57:35.711Z,13.63
2022-10-11T14:00:10.804Z,10.40
2022-10-11T14:02:39.187Z,10.20
2022-10-11T14:05:07.968Z,9.35
2022-10-11T14:07:39.909Z,8.00
2022-10-11T14:10:08.531Z,10.50
2022-10-11T14:12:40.548Z,7.80
2022-10-11T14:15:25.559Z,12.82
2022-10-11T14:17:54.118Z,10.52
2022-10-11T14:20:24.208Z,12.97
2022-10-11T14:22:53.105Z,10.27
2022-10-11T14:25:21.397Z,12.55
2022-10-11T14:27:49.824Z,9.00
2022-10-11T14:30:26.961Z,8.60
2022-10-11T14:32:59.101Z,8.37
2022-10-11T14:35:30.439Z,10.48
2022-10-11T14:37:59.052Z,9.48
2022-10-11T14:40:29.743Z,11.73
2022-10-11T14:42:58.330Z,11.98
2022-10-11T14:45:27.629Z,13.50
2022-10-11T14:47:57.388Z,11.50
2022-10-11T14:50:34.221Z,8.63
2022-10-11T14:53:02.979Z,11.00
2022-10-11T14:55:31.645Z,7.22
2022-10-11T14:58:00.692Z,14.90
2022-10-11T15:00:34.288Z,8.10
2022-10-11T15:03:03.361Z,11.60
2022-10-11T15:05:34.272Z,10.90
2022-10-11T15:08:02.610Z,11.10
2022-10-11T15:10:35.208Z,7.87
2022-10-11T15:13:04.896Z,7.88
2022-10-11T15:15:37.036Z,11.05
2022-10-11T15:18:07.007Z,12.15
2022-10-11T15:20:38.734Z,11.23
2022-10-11T15:23:09.776Z,9.93
2022-10-11T15:25:38.976Z,12.82
2022-10-11T15:28:07.816Z,8.70
2022-10-11T15:30:41.658Z,11.55
2022-10-11T15:33:10.243Z,10.45
2022-10-11T15:35:38.620Z,12.53
2022-10-11T15:38:06.903Z,8.70
2022-10-11T15:40:36.956Z,13.45
2022-10-11T15:43:05.943Z,11.63
2022-10-11T15:45:34.493Z,10.35
2022-10-11T15:48:03.803Z,11.07
2022-10-11T15:50:37.557Z,13.05
2022-10-11T15:53:07.549Z,11.32
2022-10-11T15:55:38.163Z,12.40
2022-10-11T15:58:06.338Z,12.63
2022-10-11T16:00:34.461Z,11.63
2022-10-11T16:03:03.914Z,11.40
2022-10-11T16:05:31.908Z,11.60
2022-10-11T16:08:00.225Z,9.40
2022-10-11T16:10:28.201Z,10.45
2022-10-11T16:12:56.081Z,9.80
2022-10-11T16:15:24.286Z,12.32
2022-10-11T16:17:52.412Z,12.32
2022-10-11T16:20:24.304Z,13.05
2022-10-11T16:22:53.374Z,12.82
2022-10-11T16:25:22.499Z,13.50
2022-10-11T16:27:50.329Z,12.70
2022-10-11T16:30:20.137Z,12.88
2022-10-11T16:32:48.111Z,11.80
2022-10-11T16:35:20.930Z,10.55
2022-10-11T16:37:50.196Z,14.43
2022-10-11T16:40:20.428Z,12.13
2022-10-11T16:42:48.981Z,12.20
2022-10-11T16:45:17.501Z,11.48
2022-10-11T16:47:46.241Z,12.57
2022-10-11T16:50:14.463Z,13.27
2022-10-11T16:52:42.687Z,10.20
2022-10-11T16:55:12.282Z,10.95
2022-10-11T16:57:40.001Z,12.10
2022-10-11T17:00:10.167Z,12.68
2022-10-11T17:02:38.130Z,11.90
2022-10-11T17:05:06.438Z,13.55
2022-10-11T17:07:34.536Z,9.65
2022-10-11T17:10:02.455Z,11.60
2022-10-11T17:12:31.924Z,10.95
2022-10-11T17:15:00.228Z,12.47
2022-10-11T17:17:28.093Z,10.70
2022-10-11T17:19:55.716Z,11.68
2022-10-11T17:22:24.229Z,12.40
2022-10-11T17:24:52.474Z,11.07
2022-10-11T17:27:22.266Z,14.23
2022-10-11T17:29:51.988Z,10.60
2022-10-11T17:32:20.016Z,12.57
2022-10-11T17:34:48.289Z,11.23
2022-10-11T17:37:16.378Z,10.38
2022-10-11T17:39:44.445Z,10.30
2022-10-11T17:42:12.288Z,11.35
2022-10-11T17:44:41.347Z,9.65
2022-10-11T17:47:10.613Z,11.68
2022-10-11T17:49:39.192Z,12.15
2022-10-11T17:52:07.428Z,14.73
2022-10-11T17:54:35.408Z,9.95
2022-10-11T17:57:03.367Z,12.75
2022-10-11T17:59:33.899Z,9.68
2022-10-11T18:02:02.157Z,8.75
2022-10-11T18:04:31.630Z,9.07
2022-10-11T18:07:00.239Z,10.75
2022-10-11T18:09:28.408Z,13.13
2022-10-11T18:11:56.296Z,10.57
2022-10-11T18:14:25.017Z,7.65
2022-10-11T18:16:53.009Z,12.70
2022-10-11T18:19:20.993Z,10.82
2022-10-11T18:21:50.255Z,9.85
2022-10-11T18:24:18.687Z,20.65
2022-10-11T18:26:48.736Z,19.00
2022-10-11T18:29:17.016Z,17.97
2022-10-11T18:31:44.647Z,12.23
2022-10-11T18:34:18.148Z,13.50
2022-10-11T18:36:48.294Z,14.05
2022-10-11T18:39:17.944Z,11.55
2022-10-11T18:41:45.769Z,10.63
2022-10-11T18:44:15.496Z,11.93
2022-10-11T18:46:44.192Z,12.02
2022-10-11T18:49:12.693Z,11.48
2022-10-11T18:51:42.995Z,11.82
2022-10-11T18:54:16.708Z,10.67
2022-10-11T18:56:49.274Z,9.60
2022-10-11T18:59:17.184Z,13.35
2022-10-11T19:01:46.254Z,10.93
2022-10-11T19:04:16.226Z,10.32
2022-10-11T19:06:47.442Z,11.00
2022-10-11T19:09:17.979Z,11.50
2022-10-11T19:11:46.252Z,12.32
2022-10-11T19:14:17.229Z,13.45
2022-10-11T19:16:49.985Z,8.55
2022-10-11T19:19:20.211Z,9.30
2022-10-11T19:21:48.750Z,17.35
2022-10-11T19:24:17.068Z,22.98
2022-10-11T19:26:45.263Z,18.20
2022-10-11T19:29:16.137Z,14.43
2022-10-11T19:31:46.350Z,14.17
2022-10-11T19:34:15.245Z,11.10
2022-10-11T19:36:43.996Z,14.57
2022-10-11T19:39:13.550Z,17.95
2022-10-11T19:41:42.177Z,14.40
2022-10-11T19:44:10.136Z,14.43
2022-10-11T19:46:55.151Z,14.02
2022-10-11T19:49:25.446Z,15.00
2022-10-11T19:51:55.472Z,15.10
2022-10-11T19:54:30.858Z,13.93
2022-10-11T19:56:58.887Z,11.77
2022-10-11T19:59:28.065Z,12.88
2022-10-11T20:01:57.349Z,13.85
2022-10-11T20:04:54.748Z,12.07
2022-10-11T20:07:13.648Z,11.45
2022-10-11T20:09:41.638Z,12.47
2022-10-11T20:12:09.794Z,10.65
2022-10-11T20:14:37.380Z,13.02
2022-10-11T20:17:09.595Z,12.10
2022-10-11T20:19:37.313Z,13.50
2022-10-11T20:22:05.224Z,14.30
2022-10-11T20:24:34.811Z,13.38
2022-10-11T20:27:04.265Z,12.10
2022-10-11T20:29:32.338Z,12.80
2022-10-11T20:32:00.218Z,11.63
2022-10-11T20:34:30.321Z,15.30
2022-10-11T20:36:59.425Z,16.77
2022-10-11T20:39:27.954Z,14.07
2022-10-11T20:41:56.031Z,18.63
2022-10-11T20:44:26.368Z,16.13
2022-10-11T20:46:54.391Z,16.40
2022-10-11T20:49:22.806Z,15.23
2022-10-11T20:51:52.091Z,14.00
2022-10-11T20:54:20.044Z,13.70
2022-10-11T20:56:48.274Z,17.25
2022-10-11T20:59:16.191Z,17.60
2022-10-11T21:01:44.389Z,15.48
2022-10-11T21:04:21.168Z,19.30
2022-10-11T21:06:51.315Z,15.35
2022-10-11T21:09:20.659Z,16.65
2022-10-11T21:11:48.737Z,24.47
2022-10-11T21:14:17.321Z,25.88
2022-10-11T21:16:45.690Z,24.58
2022-10-11T21:19:17.106Z,20.98
2022-10-11T21:21:51.150Z,22.45
2022-10-11T21:24:23.438Z,17.83
2022-10-11T21:26:51.540Z,16.40
2022-10-11T21:29:19.277Z,16.67
2022-10-11T21:31:47.032Z,18.15
2022-10-11T21:34:15.184Z,17.52
2022-10-11T21:36:43.834Z,14.83
2022-10-11T21:39:12.044Z,19.70
2022-10-11T21:41:42.434Z,16.13
2022-10-11T21:44:10.422Z,18.70
2022-10-11T21:47:01.725Z,14.85
2022-10-11T21:49:27.305Z,13.67
2022-10-11T21:51:55.229Z,13.68
2022-10-11T21:54:22.873Z,11.95
2022-10-11T21:56:52.697Z,13.27
2022-10-11T21:59:22.233Z,12.57
2022-10-11T22:01:50.389Z,19.50
2022-10-11T22:04:18.368Z,15.52
2022-10-11T22:06:46.899Z,17.75
2022-10-11T22:09:14.745Z,15.38
2022-10-11T22:11:42.595Z,20.70
2022-10-11T22:14:12.346Z,19.47
2022-10-11T22:16:40.430Z,15.25
2022-10-11T22:19:08.516Z,14.73
2022-10-11T22:21:39.166Z,13.57
2022-10-11T22:24:10.587Z,17.75
2022-10-11T22:26:38.742Z,12.47
2022-10-11T22:29:06.599Z,13.75
2022-10-11T22:31:38.566Z,13.05
2022-10-11T22:34:07.367Z,16.33
2022-10-11T22:36:35.862Z,14.15
2022-10-11T22:39:07.870Z,11.97
2022-10-11T22:41:36.731Z,15.93
2022-10-11T22:44:05.495Z,13.70
2022-10-11T22:46:34.248Z,15.73
2022-10-11T22:49:03.646Z,14.00
2022-10-11T22:51:31.743Z,13.87
2022-10-11T22:53:59.765Z,16.63
2022-10-11T22:56:27.941Z,17.13
2022-10-11T22:58:56.212Z,16.38
2022-10-11T23:01:24.133Z,15.80
2022-10-11T23:03:52.577Z,15.10
2022-10-11T23:06:21.996Z,17.65
2022-10-11T23:08:49.903Z,18.05
2022-10-11T23:11:18.305Z,16.85
2022-10-11T23:13:46.462Z,13.88
2022-10-11T23:16:15.105Z,15.93
2022-10-11T23:18:43.525Z,16.67
2022-10-11T23:21:11.558Z,16.00
2022-10-11T23:23:41.290Z,16.95
2022-10-11T23:26:12.367Z,16.00
2022-10-11T23:28:40.640Z,14.90
2022-10-11T23:31:11.663Z,16.92
2022-10-11T23:33:40.347Z,17.38
2022-10-11T23:36:15.496Z,17.30
2022-10-11T23:38:44.794Z,17.02
2022-10-11T23:41:13.172Z,14.40
2022-10-11T23:43:42.256Z,15.13
2022-10-11T23:46:11.122Z,15.05
2022-10-11T23:48:39.208Z,20.23
2022-10-11T23:51:07.393Z,16.88
2022-10-11T23:53:36.284Z,20.87
2022-10-11T23:56:07.252Z,17.48
2022-10-11T23:58:36.103Z,18.40
